createdAt,value
2023-03-18T00:00:11.433Z,15.60
2023-03-18T00:02:39.263Z,13.32
2023-03-18T00:05:07.659Z,14.70
2023-03-18T00:07:36.135Z,16.73
2023-03-18T00:10:03.679Z,13.82
2023-03-18T00:12:31.191Z,14.38
2023-03-18T00:14:57.629Z,19.50
2023-03-18T00:17:24.122Z,17.58
2023-03-18T00:19:50.881Z,17.65
2023-03-18T00:22:17.395Z,16.63
2023-03-18T00:24:43.879Z,19.63
2023-03-18T00:27:10.343Z,17.00
2023-03-18T00:29:37.638Z,15.98
2023-03-18T00:32:04.364Z,16.02
2023-03-18T00:34:30.845Z,17.63
2023-03-18T00:36:57.334Z,21.17
2023-03-18T00:39:28.892Z,17.20
2023-03-18T00:41:56.641Z,16.65
2023-03-18T00:44:25.175Z,17.13
2023-03-18T00:46:51.996Z,15.97
2023-03-18T00:49:19.832Z,17.73
2023-03-18T00:51:46.718Z,20.77
2023-03-18T00:54:17.892Z,20.55
2023-03-18T00:56:44.629Z,18.70
2023-03-18T00:59:11.777Z,18.60
2023-03-18T01:01:39.029Z,20.55
2023-03-18T01:04:06.374Z,14.40
2023-03-18T01:06:34.980Z,18.33
2023-03-18T01:09:02.536Z,19.77
2023-03-18T01:11:29.157Z,17.40
2023-03-18T01:13:56.115Z,14.80
2023-03-18T01:16:23.342Z,15.73
2023-03-18T01:18:50.250Z,17.35
2023-03-18T01:21:18.055Z,14.45
2023-03-18T01:23:45.136Z,17.15
2023-03-18T01:26:12.490Z,17.05
2023-03-18T01:28:38.998Z,15.68
2023-03-18T01:31:05.752Z,13.48
2023-03-18T01:33:33.474Z,17.73
2023-03-18T01:36:02.248Z,14.60
2023-03-18T01:38:30.275Z,16.73
2023-03-18T01:40:58.849Z,16.40
2023-03-18T01:43:32.165Z,18.40
2023-03-18T01:46:00.573Z,16.02
2023-03-18T01:48:31.673Z,13.75
2023-03-18T01:51:06.047Z,17.13
2023-03-18T01:53:39.048Z,17.55
2023-03-18T01:56:06.710Z,16.33
2023-03-18T01:58:39.758Z,18.55
2023-03-18T02:01:17.931Z,16.58
2023-03-18T02:06:12.474Z,14.93
2023-03-18T02:08:40.264Z,16.85
2023-03-18T02:11:09.264Z,18.73
2023-03-18T02:13:39.283Z,16.23
2023-03-18T02:16:11.799Z,17.52
2023-03-18T02:18:43.264Z,18.08
2023-03-18T02:21:40.576Z,16.85
2023-03-18T02:24:41.381Z,18.55
2023-03-18T02:27:33.951Z,18.73
2023-03-18T02:30:07.117Z,18.20
2023-03-18T02:32:34.509Z,19.48
2023-03-18T02:35:05.288Z,18.30
2023-03-18T02:37:31.773Z,17.52
2023-03-18T02:40:24.478Z,20.83
2023-03-18T02:42:51.400Z,17.33
2023-03-18T02:45:33.280Z,19.60
2023-03-18T02:48:00.758Z,19.20
2023-03-18T02:50:28.034Z,17.17
2023-03-18T02:52:54.515Z,23.08
2023-03-18T02:55:21.076Z,20.95
2023-03-18T02:57:47.522Z,19.13
2023-03-18T03:00:14.443Z,19.88
2023-03-18T03:02:41.215Z,20.42
2023-03-18T03:05:09.168Z,17.48
2023-03-18T03:07:35.722Z,18.48
2023-03-18T03:10:02.990Z,18.67
2023-03-18T03:12:29.465Z,17.70
2023-03-18T03:14:56.508Z,17.88
2023-03-18T03:17:22.976Z,21.70
2023-03-18T03:19:49.671Z,19.88
2023-03-18T03:22:17.290Z,23.17
2023-03-18T03:24:44.996Z,21.60
2023-03-18T03:27:12.369Z,19.10
2023-03-18T03:29:39.469Z,18.02
2023-03-18T03:32:06.227Z,17.42
2023-03-18T03:34:33.697Z,18.00
2023-03-18T03:37:00.582Z,19.88
2023-03-18T03:39:27.283Z,24.38
2023-03-18T03:41:53.797Z,18.83
2023-03-18T03:44:20.370Z,21.42
2023-03-18T03:46:46.936Z,22.27
2023-03-18T03:49:13.490Z,22.40
2023-03-18T03:51:40.028Z,29.92
2023-03-18T03:54:06.511Z,22.45
2023-03-18T03:56:33.081Z,20.63
2023-03-18T03:59:00.280Z,18.15
2023-03-18T04:01:27.211Z,23.35
2023-03-18T04:03:53.681Z,18.67
2023-03-18T04:06:20.156Z,22.25
2023-03-18T04:08:46.724Z,19.20
2023-03-18T04:11:13.135Z,17.13
2023-03-18T04:13:39.730Z,19.90
2023-03-18T04:16:07.680Z,17.30
2023-03-18T04:18:34.111Z,22.02
2023-03-18T04:21:00.564Z,19.17
2023-03-18T04:23:27.628Z,18.63
2023-03-18T04:25:54.034Z,14.25
2023-03-18T04:28:20.484Z,13.77
2023-03-18T04:30:48.323Z,16.55
2023-03-18T04:33:14.847Z,17.35
2023-03-18T04:35:43.441Z,15.93
2023-03-18T04:38:10.133Z,17.10
2023-03-18T04:40:36.593Z,15.45
2023-03-18T04:43:03.057Z,16.27
2023-03-18T04:45:30.278Z,16.80
2023-03-18T04:47:56.725Z,14.90
2023-03-18T04:50:24.063Z,16.60
2023-03-18T04:52:50.759Z,14.75
2023-03-18T04:55:18.011Z,16.17
2023-03-18T04:57:44.661Z,19.73
2023-03-18T05:00:14.963Z,14.77
2023-03-18T05:02:41.616Z,19.08
2023-03-18T05:05:08.508Z,17.75
2023-03-18T05:07:35.294Z,15.10
2023-03-18T05:10:01.857Z,12.73
2023-03-18T05:12:28.358Z,15.10
2023-03-18T05:14:54.974Z,16.13
2023-03-18T05:17:21.416Z,14.25
2023-03-18T05:19:49.137Z,16.60
2023-03-18T05:22:17.771Z,20.63
2023-03-18T05:24:46.040Z,15.93
2023-03-18T05:27:18.215Z,15.02
2023-03-18T05:29:45.365Z,18.58
2023-03-18T05:32:12.712Z,15.25
2023-03-18T05:34:41.584Z,15.75
2023-03-18T05:37:10.392Z,16.38
2023-03-18T05:39:37.053Z,15.85
2023-03-18T05:42:04.656Z,17.83
2023-03-18T05:44:31.446Z,15.60
2023-03-18T05:46:58.617Z,15.13
2023-03-18T05:49:25.419Z,16.25
2023-03-18T05:51:54.734Z,16.85
2023-03-18T05:56:48.321Z,16.27
2023-03-18T05:59:15.244Z,19.23
2023-03-18T06:01:42.083Z,20.75
2023-03-18T06:04:09.112Z,22.83
2023-03-18T06:06:40.622Z,19.58
2023-03-18T06:09:10.692Z,19.27
2023-03-18T06:11:38.001Z,18.98
2023-03-18T06:14:05.845Z,16.02
2023-03-18T06:16:35.100Z,17.67
2023-03-18T06:19:02.413Z,15.73
2023-03-18T06:21:29.233Z,18.17
2023-03-18T06:23:56.464Z,19.13
2023-03-18T06:26:23.097Z,17.65
2023-03-18T06:28:49.562Z,19.60
2023-03-18T06:31:16.367Z,15.93
2023-03-18T06:33:43.001Z,20.75
2023-03-18T06:36:10.639Z,17.83
2023-03-18T06:38:38.073Z,19.35
2023-03-18T06:41:04.927Z,18.13
2023-03-18T06:43:31.754Z,16.58
2023-03-18T06:45:59.365Z,16.55
2023-03-18T06:48:26.254Z,18.17
2023-03-18T06:50:52.686Z,17.67
2023-03-18T06:53:19.143Z,17.77
2023-03-18T06:55:45.663Z,20.45
2023-03-18T06:58:12.295Z,16.80
2023-03-18T07:00:41.467Z,17.83
2023-03-18T07:03:08.016Z,16.90
2023-03-18T07:05:34.791Z,16.60
2023-03-18T07:08:02.061Z,17.75
2023-03-18T07:10:29.805Z,17.88
2023-03-18T07:12:57.813Z,18.17
2023-03-18T07:15:24.380Z,17.45
2023-03-18T07:17:52.218Z,16.73
2023-03-18T07:20:19.397Z,18.52
2023-03-18T07:22:47.027Z,16.88
2023-03-18T07:25:14.137Z,17.33
2023-03-18T07:27:42.210Z,16.60
2023-03-18T07:30:09.789Z,18.08
2023-03-18T07:32:38.378Z,17.38
2023-03-18T07:35:06.563Z,16.70
2023-03-18T07:37:33.461Z,19.08
2023-03-18T07:40:00.219Z,18.02
2023-03-18T07:42:26.780Z,16.08
2023-03-18T07:44:53.595Z,15.90
2023-03-18T07:47:20.812Z,18.10
2023-03-18T07:49:47.571Z,16.20
2023-03-18T07:52:14.301Z,14.20
2023-03-18T07:54:41.627Z,18.85
2023-03-18T07:57:08.391Z,15.88
2023-03-18T07:59:34.938Z,13.10
2023-03-18T08:02:01.501Z,17.30
2023-03-18T08:04:28.605Z,15.73
2023-03-18T08:06:55.224Z,16.20
2023-03-18T08:09:22.232Z,15.20
2023-03-18T08:11:48.655Z,15.20
2023-03-18T08:14:15.240Z,16.05
2023-03-18T08:16:42.177Z,14.50
2023-03-18T08:19:08.732Z,16.23
2023-03-18T08:21:35.544Z,16.05
2023-03-18T08:24:02.177Z,16.48
2023-03-18T08:26:28.664Z,16.45
2023-03-18T08:28:55.205Z,14.30
2023-03-18T08:31:21.653Z,15.00
2023-03-18T08:33:49.459Z,12.57
2023-03-18T08:36:16.419Z,15.52
2023-03-18T08:38:43.272Z,13.95
2023-03-18T08:41:10.051Z,13.70
2023-03-18T08:43:38.936Z,15.10
2023-03-18T08:46:06.500Z,11.32
2023-03-18T08:48:33.042Z,12.77
2023-03-18T08:50:59.646Z,21.30
2023-03-18T08:53:26.162Z,12.23
2023-03-18T08:55:52.724Z,11.43
2023-03-18T08:58:19.235Z,13.32
2023-03-18T09:00:45.725Z,16.02
2023-03-18T09:03:13.307Z,12.43
2023-03-18T09:05:40.163Z,13.05
2023-03-18T09:08:06.970Z,12.50
2023-03-18T09:10:33.530Z,11.57
2023-03-18T09:13:01.043Z,15.95
2023-03-18T09:15:27.649Z,13.10
2023-03-18T09:18:10.359Z,10.90
2023-03-18T09:20:39.145Z,11.73
2023-03-18T09:23:06.785Z,13.00
2023-03-18T09:25:34.268Z,15.38
2023-03-18T09:28:01.218Z,13.73
2023-03-18T09:30:30.116Z,13.70
2023-03-18T09:32:56.722Z,11.68
2023-03-18T09:35:24.180Z,12.65
2023-03-18T09:37:50.841Z,13.32
2023-03-18T09:40:38.017Z,13.48
2023-03-18T09:43:07.785Z,13.13
2023-03-18T09:46:16.251Z,14.13
2023-03-18T09:49:23.499Z,13.00
2023-03-18T09:52:07.061Z,11.15
2023-03-18T09:54:59.800Z,14.38
2023-03-18T09:57:33.679Z,15.60
2023-03-18T10:00:05.020Z,12.18
2023-03-18T10:02:37.147Z,14.30
2023-03-18T10:05:10.524Z,16.50
2023-03-18T10:07:41.620Z,11.18
2023-03-18T10:10:22.085Z,11.23
2023-03-18T10:12:52.955Z,12.70
2023-03-18T10:15:32.020Z,10.52
2023-03-18T10:18:12.769Z,12.50
2023-03-18T10:20:57.102Z,11.85
2023-03-18T10:23:54.769Z,12.15
2023-03-18T10:26:33.273Z,7.82
2023-03-18T10:29:08.200Z,8.32
2023-03-18T10:31:50.291Z,11.32
2023-03-18T10:34:22.224Z,11.10
2023-03-18T10:36:58.036Z,6.95
2023-03-18T10:39:27.569Z,10.85
2023-03-18T10:44:32.493Z,10.48
2023-03-18T10:47:06.361Z,8.55
2023-03-18T10:49:40.761Z,11.55
2023-03-18T10:52:33.625Z,10.38
2023-03-18T10:55:00.131Z,11.60
2023-03-18T10:57:27.038Z,6.45
2023-03-18T10:59:53.977Z,8.38
2023-03-18T11:02:34.744Z,9.02
2023-03-18T11:05:05.526Z,9.98
2023-03-18T11:07:32.206Z,10.13
2023-03-18T11:10:18.546Z,10.40
2023-03-18T11:12:46.177Z,8.38
2023-03-18T11:15:13.515Z,10.57
2023-03-18T11:17:40.749Z,7.93
2023-03-18T11:20:25.210Z,9.27
2023-03-18T11:22:55.343Z,9.32
2023-03-18T11:25:26.582Z,7.43
2023-03-18T11:27:59.387Z,6.88
2023-03-18T11:30:34.664Z,7.78
2023-03-18T11:33:07.032Z,9.77
2023-03-18T11:35:44.773Z,6.63
2023-03-18T11:38:17.672Z,10.52
2023-03-18T11:40:44.526Z,9.40
2023-03-18T11:43:21.294Z,9.90
2023-03-18T11:45:52.869Z,7.28
2023-03-18T11:48:24.162Z,9.73
2023-03-18T11:51:12.050Z,7.72
2023-03-18T11:53:41.341Z,9.50
2023-03-18T11:56:17.048Z,7.72
2023-03-18T11:59:18.967Z,8.07
2023-03-18T12:02:17.337Z,7.93
2023-03-18T12:04:52.460Z,8.05
2023-03-18T12:07:38.488Z,6.60
2023-03-18T12:10:15.055Z,11.02
2023-03-18T12:12:48.339Z,7.65
2023-03-18T12:15:36.449Z,7.68
2023-03-18T12:18:17.659Z,8.32
2023-03-18T12:20:56.952Z,8.10
2023-03-18T12:23:50.079Z,8.95
2023-03-18T12:26:32.314Z,6.35
2023-03-18T12:29:04.628Z,7.78
2023-03-18T12:31:40.659Z,8.05
2023-03-18T12:34:27.201Z,8.10
2023-03-18T12:37:15.664Z,10.57
2023-03-18T12:39:49.966Z,9.75
2023-03-18T12:42:43.501Z,7.72
2023-03-18T12:45:18.590Z,10.40
2023-03-18T12:48:40.689Z,6.00
2023-03-18T12:51:18.318Z,6.93
2023-03-18T12:53:50.106Z,7.05
2023-03-18T12:56:21.423Z,12.05
2023-03-18T12:58:52.359Z,7.78
2023-03-18T13:01:38.896Z,7.40
2023-03-18T13:04:11.896Z,8.25
2023-03-18T13:06:47.766Z,10.73
2023-03-18T13:09:22.964Z,7.07
2023-03-18T13:12:09.166Z,7.93
2023-03-18T13:14:51.486Z,9.73
2023-03-18T13:17:24.529Z,7.63
2023-03-18T13:19:51.279Z,9.02
2023-03-18T13:22:47.444Z,7.65
2023-03-18T13:25:33.390Z,8.98
2023-03-18T13:28:25.310Z,10.90
2023-03-18T13:31:19.684Z,8.57
2023-03-18T13:34:26.507Z,6.75
2023-03-18T13:37:12.470Z,8.45
2023-03-18T13:39:53.408Z,9.20
2023-03-18T13:42:31.223Z,11.48
2023-03-18T13:45:01.456Z,10.73
2023-03-18T13:47:34.754Z,10.23
2023-03-18T13:50:05.748Z,8.40
2023-03-18T13:52:43.902Z,9.27
2023-03-18T13:55:16.810Z,10.85
2023-03-18T13:57:54.566Z,10.50
2023-03-18T14:00:53.870Z,7.55
2023-03-18T14:03:31.426Z,8.55
2023-03-18T14:06:14.607Z,9.77
2023-03-18T14:08:42.781Z,11.65
2023-03-18T14:11:16.723Z,16.63
2023-03-18T14:13:52.302Z,13.63
2023-03-18T14:16:24.239Z,9.35
2023-03-18T14:18:59.959Z,10.32
2023-03-18T14:21:29.045Z,9.20
2023-03-18T14:24:06.954Z,10.85
2023-03-18T14:26:34.575Z,10.15
2023-03-18T14:29:06.649Z,10.93
2023-03-18T14:31:39.243Z,6.97
2023-03-18T14:34:17.806Z,10.25
2023-03-18T14:36:53.273Z,9.70
2023-03-18T14:39:40.088Z,6.78
2023-03-18T14:42:18.950Z,9.75
2023-03-18T14:44:50.267Z,10.30
2023-03-18T14:47:38.074Z,10.30
2023-03-18T14:50:40.891Z,13.07
2023-03-18T14:53:22.719Z,11.63
2023-03-18T14:55:51.494Z,9.07
2023-03-18T14:58:20.850Z,11.13
2023-03-18T15:00:51.523Z,11.77
2023-03-18T15:03:31.333Z,8.73
2023-03-18T15:06:04.406Z,10.48
2023-03-18T15:08:47.870Z,13.45
2023-03-18T15:11:16.978Z,9.55
2023-03-18T15:13:43.578Z,11.82
2023-03-18T15:16:13.570Z,9.60
2023-03-18T15:18:40.219Z,9.10
2023-03-18T15:21:15.532Z,8.48
2023-03-18T15:23:46.426Z,15.15
2023-03-18T15:26:18.953Z,8.27
2023-03-18T15:28:52.963Z,8.85
2023-03-18T15:31:30.414Z,7.68
2023-03-18T15:34:07.538Z,21.88
2023-03-18T15:36:54.509Z,11.10
2023-03-18T15:39:41.654Z,8.30
2023-03-18T15:42:16.574Z,9.13
2023-03-18T15:44:46.277Z,12.48
2023-03-18T15:47:27.857Z,6.53
2023-03-18T15:49:56.326Z,8.55
2023-03-18T15:52:27.565Z,9.57
2023-03-18T15:54:54.023Z,10.50
2023-03-18T15:57:34.806Z,7.10
2023-03-18T16:00:01.432Z,10.73
2023-03-18T16:02:29.873Z,8.25
2023-03-18T16:05:12.144Z,8.25
2023-03-18T16:07:38.619Z,6.93
2023-03-18T16:10:05.537Z,8.18
2023-03-18T16:12:34.074Z,12.13
2023-03-18T16:15:03.375Z,7.60
2023-03-18T16:17:30.411Z,8.73
2023-03-18T16:19:57.344Z,9.00
2023-03-18T16:22:23.838Z,8.05
2023-03-18T16:24:50.492Z,8.50
2023-03-18T16:27:41.414Z,11.02
2023-03-18T16:30:23.223Z,7.20
2023-03-18T16:32:50.365Z,10.15
2023-03-18T16:35:22.364Z,9.98
2023-03-18T16:37:49.462Z,12.00
2023-03-18T16:40:18.337Z,8.95
2023-03-18T16:42:45.566Z,10.05
2023-03-18T16:45:23.573Z,10.38
2023-03-18T16:47:51.887Z,7.65
2023-03-18T16:50:21.997Z,9.07
2023-03-18T16:52:49.609Z,12.05
2023-03-18T16:55:19.128Z,8.68
2023-03-18T17:00:22.673Z,8.75
2023-03-18T17:02:52.402Z,9.40
2023-03-18T17:05:20.963Z,8.75
2023-03-18T17:07:47.918Z,11.57
2023-03-18T17:10:16.949Z,6.70
2023-03-18T17:12:51.862Z,11.77
2023-03-18T17:15:28.249Z,7.35
2023-03-18T17:18:00.671Z,6.80
2023-03-18T17:20:30.132Z,11.38
2023-03-18T17:25:25.571Z,10.23
2023-03-18T17:27:55.856Z,10.65
2023-03-18T17:30:23.966Z,10.77
2023-03-18T17:32:50.952Z,9.57
2023-03-18T17:35:22.741Z,8.35
2023-03-18T17:37:49.707Z,8.93
2023-03-18T17:40:18.794Z,6.97
2023-03-18T17:42:46.810Z,12.25
2023-03-18T17:45:32.242Z,7.20
2023-03-18T17:48:14.852Z,7.82
2023-03-18T17:50:44.137Z,12.05
2023-03-18T17:53:30.113Z,11.27
2023-03-18T17:55:57.315Z,7.72
2023-03-18T17:58:27.379Z,8.23
2023-03-18T18:01:03.516Z,11.07
2023-03-18T18:03:30.852Z,9.27
2023-03-18T18:05:58.582Z,9.48
2023-03-18T18:08:26.338Z,11.07
2023-03-18T18:10:58.015Z,7.88
2023-03-18T18:13:24.513Z,12.75
2023-03-18T18:15:51.168Z,10.05
2023-03-18T18:18:25.219Z,10.07
2023-03-18T18:20:57.845Z,11.02
2023-03-18T18:23:37.281Z,10.13
2023-03-18T18:28:36.120Z,9.95
2023-03-18T18:31:05.672Z,13.00
2023-03-18T18:33:33.438Z,9.25
2023-03-18T18:36:00.480Z,10.40
2023-03-18T18:38:28.341Z,11.55
2023-03-18T18:40:57.354Z,9.90
2023-03-18T18:43:25.192Z,10.25
2023-03-18T18:45:53.630Z,10.20
2023-03-18T18:48:31.317Z,7.68
2023-03-18T18:50:59.314Z,8.25
2023-03-18T18:53:28.797Z,10.27
2023-03-18T18:58:28.771Z,8.65
2023-03-18T19:00:55.862Z,8.80
2023-03-18T19:03:24.293Z,9.52
2023-03-18T19:05:52.908Z,10.57
2023-03-18T19:08:25.377Z,10.20
2023-03-18T19:10:56.968Z,9.10
2023-03-18T19:13:25.195Z,12.02
2023-03-18T19:15:54.171Z,9.80
2023-03-18T19:18:26.882Z,11.38
2023-03-18T19:20:53.394Z,8.35
2023-03-18T19:23:24.668Z,10.73
2023-03-18T19:25:52.441Z,9.43
2023-03-18T19:28:58.583Z,10.07
2023-03-18T19:31:30.413Z,11.02
2023-03-18T19:33:59.547Z,12.93
2023-03-18T19:36:26.156Z,12.35
2023-03-18T19:38:55.225Z,11.75
2023-03-18T19:41:22.222Z,10.35
2023-03-18T19:43:49.502Z,9.68
2023-03-18T19:46:23.808Z,10.00
2023-03-18T19:48:50.610Z,11.05
2023-03-18T19:51:17.114Z,13.75
2023-03-18T19:53:45.595Z,8.75
2023-03-18T19:56:23.942Z,10.30
2023-03-18T19:58:52.889Z,10.90
2023-03-18T20:01:21.919Z,13.85
2023-03-18T20:03:58.527Z,13.32
2023-03-18T20:06:25.763Z,11.75
2023-03-18T20:08:52.369Z,10.20
2023-03-18T20:11:22.832Z,11.73
2023-03-18T20:13:49.667Z,10.77
2023-03-18T20:16:17.624Z,10.77
2023-03-18T20:18:44.465Z,11.90
2023-03-18T20:21:27.617Z,10.05
2023-03-18T20:23:58.844Z,8.90
2023-03-18T20:26:25.896Z,9.65
2023-03-18T20:28:55.716Z,9.38
2023-03-18T20:31:22.529Z,10.60
2023-03-18T20:33:49.021Z,9.30
2023-03-18T20:36:17.496Z,10.73
2023-03-18T20:38:47.196Z,12.38
2023-03-18T20:41:18.750Z,12.02
2023-03-18T20:43:47.718Z,13.15
2023-03-18T20:46:14.910Z,11.45
2023-03-18T20:48:42.305Z,9.90
2023-03-18T20:51:26.247Z,10.88
2023-03-18T20:53:53.110Z,9.40
2023-03-18T20:56:22.713Z,11.82
2023-03-18T20:58:50.356Z,8.65
2023-03-18T21:01:18.124Z,9.40
2023-03-18T21:03:44.777Z,10.98
2023-03-18T21:06:16.340Z,12.07
2023-03-18T21:08:43.473Z,12.75
2023-03-18T21:11:22.592Z,13.27
2023-03-18T21:13:49.489Z,17.08
2023-03-18T21:16:16.886Z,21.02
2023-03-18T21:18:47.682Z,65.70
2023-03-18T21:21:20.031Z,50.38
2023-03-18T21:23:46.638Z,34.42
2023-03-18T21:26:13.145Z,35.97
2023-03-18T21:28:39.649Z,50.42
2023-03-18T21:31:19.136Z,35.38
2023-03-18T21:36:13.174Z,23.40
2023-03-18T21:38:39.744Z,20.98
2023-03-18T21:41:20.136Z,21.17
2023-03-18T21:43:47.179Z,15.95
2023-03-18T21:46:18.893Z,12.68
2023-03-18T21:48:45.740Z,15.23
2023-03-18T21:51:40.887Z,16.08
2023-03-18T21:54:18.231Z,18.65
2023-03-18T21:56:44.709Z,21.00
2023-03-18T21:59:11.339Z,21.60
2023-03-18T22:01:37.864Z,21.52
2023-03-18T22:04:04.515Z,16.77
2023-03-18T22:06:31.209Z,21.48
2023-03-18T22:08:57.771Z,20.35
2023-03-18T22:11:24.293Z,19.13
2023-03-18T22:13:50.808Z,23.45
2023-03-18T22:16:18.684Z,25.48
2023-03-18T22:18:47.236Z,32.00
2023-03-18T22:21:25.107Z,33.75
2023-03-18T22:23:52.012Z,25.27
2023-03-18T22:26:20.281Z,19.88
2023-03-18T22:28:47.688Z,24.02
2023-03-18T22:31:21.249Z,22.05
2023-03-18T22:33:47.879Z,24.48
2023-03-18T22:36:15.856Z,25.60
2023-03-18T22:38:42.702Z,26.13
2023-03-18T22:41:24.830Z,23.90
2023-03-18T22:43:51.576Z,19.88
2023-03-18T22:46:18.154Z,18.85
2023-03-18T22:48:44.762Z,20.63
2023-03-18T22:51:21.813Z,21.75
2023-03-18T22:53:51.571Z,19.67
2023-03-18T22:56:18.474Z,17.35
2023-03-18T22:58:45.351Z,20.13
2023-03-18T23:01:20.318Z,17.17
2023-03-18T23:03:47.470Z,18.15
2023-03-18T23:06:18.220Z,17.90
2023-03-18T23:08:47.571Z,16.20
2023-03-18T23:11:15.630Z,17.05
2023-03-18T23:13:44.105Z,14.00
2023-03-18T23:16:16.456Z,14.60
2023-03-18T23:18:43.188Z,12.88
2023-03-18T23:21:21.119Z,13.73
2023-03-18T23:23:47.598Z,17.67
2023-03-18T23:26:16.040Z,13.93
2023-03-18T23:28:45.905Z,12.32
2023-03-18T23:31:14.158Z,11.82
2023-03-18T23:33:41.008Z,18.70
2023-03-18T23:36:08.210Z,16.15
2023-03-18T23:38:34.745Z,14.30
2023-03-18T23:41:01.373Z,14.02
2023-03-18T23:43:27.806Z,12.60
2023-03-18T23:45:54.407Z,14.27
2023-03-18T23:48:20.983Z,12.02
2023-03-18T23:50:47.468Z,15.23
2023-03-18T23:53:13.889Z,15.43
2023-03-18T23:55:40.335Z,13.18
2023-03-18T23:58:06.794Z,15.18
